Time;durP1;ratioP1;P1;durP2;ratioP2;P2;SDS_P1;SDS_P2;PMS_P1;PMS_P2;Temp;Humidity;BMP_temperature;BMP_pressure;BME280_temperature;BME280_humidity;BME280_pressure;Samples;Min_cycle;Max_cycle;Signal;HPM_P1;HPM_P2
2021/07/30 00:02:04;;;;;;;4.00;2.73;;;;;;;14.50;88.89;95644.00;5025466;28;20420;-76
2021/07/30 00:04:29;;;;;;;3.07;2.77;;;;;;;14.41;89.53;95639.47;5030513;28;20423;-75
2021/07/30 00:06:56;;;;;;;5.53;3.50;;;;;;;14.20;91.72;95648.06;5031424;28;20920;-76
2021/07/30 00:09:21;;;;;;;4.05;2.83;;;;;;;13.99;93.55;95650.56;5031703;28;20423;-76
2021/07/30 00:11:47;;;;;;;4.57;3.20;;;;;;;13.93;94.34;95642.41;5030461;28;20411;-76
2021/07/30 00:14:12;;;;;;;4.20;2.67;;;;;;;13.86;95.07;95638.63;5030565;28;20959;-76
2021/07/30 00:16:39;;;;;;;3.50;3.07;;;;;;;13.90;94.71;95632.22;5031508;28;20407;-76
2021/07/30 00:19:04;;;;;;;6.25;3.13;;;;;;;13.96;95.27;95631.75;5030194;28;20518;-76
2021/07/30 00:21:30;;;;;;;4.20;2.90;;;;;;;13.92;95.43;95630.34;5030175;28;20510;-76
2021/07/30 00:23:56;;;;;;;4.60;3.03;;;;;;;13.88;93.50;95628.94;5031745;28;20462;-75
2021/07/30 00:26:22;;;;;;;4.32;3.30;;;;;;;13.69;97.71;95634.75;5031398;28;20454;-76
2021/07/30 00:28:47;;;;;;;5.10;3.57;;;;;;;13.45;100.00;95640.88;5031298;28;20447;-75
2021/07/30 00:31:13;;;;;;;4.22;3.50;;;;;;;13.41;100.00;95633.41;5031338;28;20900;-76
2021/07/30 00:33:38;;;;;;;5.37;3.60;;;;;;;13.45;100.00;95637.44;5031259;28;20911;-76
2021/07/30 00:36:04;;;;;;;3.30;2.93;;;;;;;13.60;100.00;95638.03;5028975;28;20423;-75
2021/07/30 00:38:30;;;;;;;4.83;3.27;;;;;;;13.72;100.00;95643.16;5031005;28;20805;-75
2021/07/30 00:40:57;;;;;;;4.47;3.30;;;;;;;13.85;98.03;95635.19;5031120;28;20431;-76
2021/07/30 00:43:22;;;;;;;4.80;3.35;;;;;;;13.82;95.64;95635.44;5021561;28;20779;-77
2021/07/30 00:45:53;;;;;;;5.10;3.03;;;;;;;13.68;96.38;95636.53;5030890;28;20415;-76
2021/07/30 00:48:20;;;;;;;3.47;2.90;;;;;;;13.64;96.96;95639.47;5030894;28;20897;-76
2021/07/30 00:50:46;;;;;;;3.83;2.58;;;;;;;13.67;95.98;95639.22;5029649;28;20431;-76
2021/07/30 00:53:11;;;;;;;4.18;3.10;;;;;;;13.70;95.57;95621.59;5030941;28;20461;-77
2021/07/30 00:55:37;;;;;;;3.50;3.20;;;;;;;13.66;95.88;95624.56;5030747;28;20419;-77
2021/07/30 00:58:04;;;;;;;3.77;3.00;;;;;;;13.63;97.17;95627.41;5030980;28;20416;-76
2021/07/30 01:00:30;;;;;;;4.97;3.47;;;;;;;13.46;100.00;95633.88;5029487;28;20497;-76
2021/07/30 01:02:59;;;;;;;5.35;3.30;;;;;;;13.32;100.00;95627.16;5030690;28;20509;-76
2021/07/30 01:05:24;;;;;;;4.60;3.60;;;;;;;13.22;100.00;95632.19;5030434;28;20895;-76
2021/07/30 01:07:49;;;;;;;4.23;3.30;;;;;;;13.29;100.00;95633.41;5030791;28;20411;-76
2021/07/30 01:10:15;;;;;;;3.67;2.70;;;;;;;13.47;95.44;95639.00;5029332;28;20434;-76
2021/07/30 01:12:41;;;;;;;4.30;2.50;;;;;;;13.41;95.44;95631.66;5030720;28;20461;-75
2021/07/30 01:15:08;;;;;;;6.33;2.80;;;;;;;13.38;94.77;95631.88;5029321;28;20472;-74
2021/07/30 01:17:33;;;;;;;3.35;2.67;;;;;;;13.36;96.24;95632.94;5029154;28;20857;-76
2021/07/30 01:19:59;;;;;;;5.00;2.83;;;;;;;13.36;98.23;95631.19;5030655;28;20442;-76
2021/07/30 01:22:29;;;;;;;4.97;3.13;;;;;;;13.48;98.04;95626.81;5030569;28;20427;-76
2021/07/30 01:24:56;;;;;;;3.45;3.10;;;;;;;13.50;97.92;95627.53;5030615;28;20453;-76
2021/07/30 01:27:22;;;;;;;3.10;2.80;;;;;;;13.45;97.98;95633.06;5029126;28;21025;-75
2021/07/30 01:29:48;;;;;;;3.55;2.95;;;;;;;13.40;97.46;95627.41;5029127;28;20445;-75
2021/07/30 01:32:14;;;;;;;5.60;3.30;;;;;;;13.48;99.42;95629.41;5029192;28;20418;-76
2021/07/30 01:34:39;;;;;;;3.13;2.70;;;;;;;13.55;97.87;95633.19;5030532;28;20522;-76
2021/07/30 01:37:05;;;;;;;4.03;2.80;;;;;;;13.58;94.58;95625.16;5030261;28;20935;-76
2021/07/30 01:39:31;;;;;;;3.38;2.30;;;;;;;13.61;90.00;95624.94;5029370;28;20825;-76
2021/07/30 01:41:57;;;;;;;3.08;2.38;;;;;;;13.36;93.09;95628.56;5029096;28;20525;-76
2021/07/30 01:44:23;;;;;;;8.75;2.92;;;;;;;13.23;94.24;95622.59;5030916;28;20414;-76
2021/07/30 01:46:48;;;;;;;3.13;2.55;;;;;;;13.27;95.21;95630.13;5029798;28;20418;-77
2021/07/30 01:49:14;;;;;;;4.23;2.97;;;;;;;13.28;96.52;95621.34;5033565;28;20411;-76
2021/07/30 01:51:40;;;;;;;6.10;2.50;;;;;;;13.34;95.61;95624.44;5032251;28;20820;-76
2021/07/30 01:54:08;;;;;;;5.70;2.90;;;;;;;13.29;95.46;95623.00;5019434;28;20475;-77
2021/07/30 01:56:34;;;;;;;4.38;3.03;;;;;;;13.32;94.89;95622.78;5014415;28;20412;-76
2021/07/30 01:59:01;;;;;;;2.67;2.40;;;;;;;13.44;92.10;95623.59;5014570;28;20469;-75
2021/07/30 02:01:27;;;;;;;3.28;2.60;;;;;;;13.23;91.47;95623.47;5024176;28;20408;-76
2021/07/30 02:03:52;;;;;;;4.80;3.03;;;;;;;13.14;92.61;95616.34;5034063;28;20923;-76
2021/07/30 02:06:18;;;;;;;6.40;2.80;;;;;;;13.25;89.68;95621.59;5033903;28;20443;-75
2021/07/30 02:11:18;;;;;;;8.10;3.45;;;;;;;13.00;93.18;95600.94;5060307;28;20436;-80
2021/07/30 02:16:29;;;;;;;4.53;2.83;;;;;;;12.74;96.85;95608.06;5040196;28;20429;-80
2021/07/30 02:18:55;;;;;;;5.82;2.70;;;;;;;12.78;96.93;95602.53;5040723;28;20419;-80
2021/07/30 02:21:21;;;;;;;5.80;2.92;;;;;;;12.81;96.41;95602.31;5045976;28;20447;-81
2021/07/30 02:23:46;;;;;;;3.85;2.72;;;;;;;12.77;97.25;95603.47;5050570;28;20436;-79
2021/07/30 02:26:16;;;;;;;5.65;2.60;;;;;;;12.72;97.04;95607.34;5057753;28;20425;-79
2021/07/30 02:28:43;;;;;;;8.88;2.75;;;;;;;12.80;94.04;95595.47;5042363;28;20426;-78
2021/07/30 02:31:11;;;;;;;6.10;2.85;;;;;;;12.79;93.36;95598.16;5042101;28;20441;-78
2021/07/30 02:33:38;;;;;;;3.83;2.67;;;;;;;12.60;95.00;95598.69;5041927;28;20518;-78
2021/07/30 02:36:04;;;;;;;2.80;2.60;;;;;;;12.55;95.87;95595.63;5041891;28;20446;-78
2021/07/30 02:38:30;;;;;;;8.35;2.90;;;;;;;12.57;96.61;95594.56;5042348;28;20426;-78
2021/07/30 02:40:55;;;;;;;5.90;2.53;;;;;;;12.59;96.60;95590.06;5042896;28;20459;-78
2021/07/30 02:43:20;;;;;;;3.93;2.87;;;;;;;12.61;96.88;95600.38;5041875;28;20510;-78
2021/07/30 02:45:46;;;;;;;2.83;2.60;;;;;;;12.70;97.37;95597.09;5041712;28;20505;-78
2021/07/30 02:48:12;;;;;;;5.47;3.00;;;;;;;12.73;97.84;95593.44;5042139;28;20976;-78
2021/07/30 02:50:38;;;;;;;5.37;2.60;;;;;;;12.82;97.78;95590.13;5042610;28;20509;-78
2021/07/30 02:53:04;;;;;;;7.70;3.70;;;;;;;12.86;97.78;95588.97;5041685;28;20423;-78
2021/07/30 02:55:29;;;;;;;4.47;3.07;;;;;;;12.88;97.55;95586.28;5041118;28;20465;-78
2021/07/30 02:57:55;;;;;;;3.45;3.00;;;;;;;12.79;98.00;95582.56;5041838;28;20504;-78
2021/07/30 03:00:20;;;;;;;3.67;2.90;;;;;;;12.76;98.30;95582.81;5041083;28;20453;-78
2021/07/30 03:02:46;;;;;;;3.80;2.70;;;;;;;12.75;96.88;95578.53;5044725;28;20427;-78
2021/07/30 03:05:11;;;;;;;6.10;2.33;;;;;;;12.77;93.46;95582.69;5063979;28;20421;-79
2021/07/30 03:07:38;;;;;;;4.73;3.40;;;;;;;12.84;90.92;95578.69;5064292;28;20496;-79
2021/07/30 03:10:04;;;;;;;5.28;2.70;;;;;;;12.71;92.23;95580.53;5059539;28;20417;-79
2021/07/30 03:12:30;;;;;;;4.25;3.00;;;;;;;12.50;93.78;95571.75;5044202;28;20419;-78
2021/07/30 03:14:55;;;;;;;4.70;2.78;;;;;;;12.35;94.65;95576.31;5043554;28;20498;-79
2021/07/30 03:17:21;;;;;;;5.38;3.08;;;;;;;12.18;95.91;95577.50;5042781;28;20414;-79
2021/07/30 03:19:46;;;;;;;4.37;3.07;;;;;;;12.10;97.28;95575.47;5043060;28;20422;-78
2021/07/30 03:22:11;;;;;;;6.60;2.90;;;;;;;12.14;96.96;95573.47;5042795;28;20419;-78
2021/07/30 03:24:38;;;;;;;4.40;2.77;;;;;;;12.17;97.20;95569.84;5042909;28;20446;-78
2021/07/30 03:27:05;;;;;;;2.58;2.38;;;;;;;12.21;97.04;95569.50;5043991;28;20478;-78
2021/07/30 03:29:30;;;;;;;2.92;2.50;;;;;;;12.21;97.15;95568.69;5046204;28;20485;-78
2021/07/30 03:31:56;;;;;;;3.40;2.43;;;;;;;12.17;95.21;95568.06;5045897;28;20411;-78
2021/07/30 03:34:21;;;;;;;2.83;2.40;;;;;;;12.13;95.01;95558.03;5044585;28;20486;-79
2021/07/30 03:36:47;;;;;;;4.18;2.30;;;;;;;12.14;93.88;95557.91;5043081;28;20407;-79
2021/07/30 03:39:12;;;;;;;4.40;2.57;;;;;;;12.00;95.89;95556.31;5043539;28;20411;-79
2021/07/30 03:41:39;;;;;;;3.43;2.37;;;;;;;11.96;97.10;95560.06;5042435;28;20975;-79
2021/07/30 03:44:04;;;;;;;3.67;2.30;;;;;;;12.00;96.97;95558.06;5041869;28;20427;-79
2021/07/30 03:46:30;;;;;;;2.63;2.33;;;;;;;11.96;97.81;95554.03;5042871;28;20435;-79
2021/07/30 03:48:55;;;;;;;4.40;3.17;;;;;;;11.93;100.00;95555.06;5042517;28;20431;-79
2021/07/30 03:51:21;;;;;;;3.60;3.03;;;;;;;11.99;100.00;95552.06;5042088;28;20426;-79
2021/07/30 03:53:46;;;;;;;3.78;2.60;;;;;;;12.06;98.85;95548.09;5041723;28;20415;-79
2021/07/30 03:56:12;;;;;;;3.58;2.85;;;;;;;12.14;95.46;95552.72;5041294;28;20424;-79
2021/07/30 03:58:39;;;;;;;3.63;2.80;;;;;;;12.15;92.83;95551.78;5042235;28;20450;-79
2021/07/30 04:01:06;;;;;;;4.43;2.70;;;;;;;12.04;93.71;95552.53;5042247;28;20419;-79
2021/07/30 04:03:32;;;;;;;2.63;2.40;;;;;;;11.91;95.23;95544.00;5048041;28;20500;-79
2021/07/30 04:05:57;;;;;;;4.03;2.40;;;;;;;11.89;95.94;95545.84;5059451;28;20449;-79
2021/07/30 04:08:23;;;;;;;3.80;2.22;;;;;;;12.00;94.88;95542.50;5057814;28;20511;-79
2021/07/30 04:10:49;;;;;;;2.43;2.17;;;;;;;11.93;95.65;95544.69;5057756;28;20482;-80
2021/07/30 04:13:19;;;;;;;3.83;2.70;;;;;;;11.94;98.97;95545.53;5058225;28;20451;-79
2021/07/30 04:15:46;;;;;;;2.92;2.30;;;;;;;12.00;99.04;95542.50;5056701;28;20429;-79
2021/07/30 04:18:11;;;;;;;3.95;2.50;;;;;;;12.03;98.30;95550.06;5055753;28;20428;-77
2021/07/30 04:20:37;;;;;;;3.33;2.50;;;;;;;12.02;97.05;95551.00;5045949;28;20528;-76
2021/07/30 04:23:03;;;;;;;4.43;2.40;;;;;;;12.12;94.05;95549.38;5047513;28;20846;-78
2021/07/30 04:25:28;;;;;;;4.63;2.60;;;;;;;12.12;93.83;95551.97;5052369;28;20774;-79
2021/07/30 04:27:53;;;;;;;7.25;2.40;;;;;;;12.03;95.00;95550.91;5052293;28;20413;-78
2021/07/30 04:30:21;;;;;;;2.57;2.37;;;;;;;12.21;92.29;95553.94;5050727;28;20409;-76
2021/07/30 04:32:47;;;;;;;4.60;2.60;;;;;;;12.18;91.92;95558.50;5051216;28;20458;-77
2021/07/30 04:35:13;;;;;;;4.32;2.38;;;;;;;12.00;94.27;95550.28;5035476;28;20441;-76
2021/07/30 04:37:39;;;;;;;4.07;2.70;;;;;;;12.01;95.76;95552.75;5031695;28;20900;-75
2021/07/30 04:40:05;;;;;;;2.57;2.37;;;;;;;12.13;94.84;95555.44;5031437;28;20498;-76
2021/07/30 04:42:31;;;;;;;3.47;2.90;;;;;;;12.19;95.61;95553.19;5031460;28;20816;-76
2021/07/30 04:44:56;;;;;;;6.00;2.73;;;;;;;12.25;96.40;95555.34;5040858;28;20466;-75
2021/07/30 04:47:22;;;;;;;3.80;2.90;;;;;;;12.16;98.64;95553.41;5049688;28;20413;-76
2021/07/30 04:49:48;;;;;;;2.80;2.50;;;;;;;12.15;99.45;95558.72;5045595;28;20417;-75
2021/07/30 04:52:14;;;;;;;2.67;2.42;;;;;;;12.20;99.72;95554.88;5050742;28;20448;-75
2021/07/30 04:54:39;;;;;;;4.07;2.90;;;;;;;12.34;98.79;95559.03;5050877;28;20835;-75
2021/07/30 04:57:07;;;;;;;3.87;2.47;;;;;;;12.41;98.39;95568.03;5048062;28;20504;-75
2021/07/30 04:59:32;;;;;;;2.42;1.95;;;;;;;12.58;98.27;95565.03;5046770;28;20822;-75
2021/07/30 05:01:58;;;;;;;2.00;1.80;;;;;;;12.71;99.48;95557.16;5043548;28;20739;-75
2021/07/30 05:04:23;;;;;;;4.27;2.20;;;;;;;12.79;100.00;95560.03;5051161;28;20500;-75
2021/07/30 05:06:50;;;;;;;3.43;2.53;;;;;;;12.86;99.92;95557.78;5046828;28;20426;-75
2021/07/30 05:09:16;;;;;;;4.60;3.00;;;;;;;12.95;99.46;95557.09;5038059;28;20430;-75
2021/07/30 05:11:41;;;;;;;7.27;3.50;;;;;;;13.05;98.74;95552.00;5031039;28;20422;-77
2021/07/30 05:14:07;;;;;;;4.87;3.60;;;;;;;13.07;98.32;95552.75;5048723;28;20755;-77
2021/07/30 05:16:33;;;;;;;4.20;3.20;;;;;;;13.10;98.05;95551.69;5051216;28;20424;-77
2021/07/30 05:18:58;;;;;;;4.27;3.67;;;;;;;13.19;97.84;95549.19;5045798;28;20489;-75
2021/07/30 05:21:23;;;;;;;9.50;3.57;;;;;;;13.19;97.00;95544.00;5045825;28;20476;-75
2021/07/30 05:23:50;;;;;;;5.97;3.35;;;;;;;13.09;98.31;95548.25;5045876;28;21016;-75
2021/07/30 05:26:16;;;;;;;5.68;3.58;;;;;;;13.00;98.96;95554.16;5042253;28;20445;-75
2021/07/30 05:28:41;;;;;;;7.00;3.17;;;;;;;12.90;99.70;95551.41;5042453;28;20474;-75
2021/07/30 05:31:12;;;;;;;6.23;3.53;;;;;;;13.06;99.45;95551.91;5049654;28;20424;-75
2021/07/30 05:33:37;;;;;;;5.97;3.70;;;;;;;13.04;98.68;95545.16;5039029;28;20417;-75
2021/07/30 05:36:03;;;;;;;6.13;3.20;;;;;;;13.18;99.52;95544.94;5041831;28;20467;-75
2021/07/30 05:38:28;;;;;;;4.90;3.60;;;;;;;13.58;97.23;95534.09;5050630;28;20448;-75
2021/07/30 05:40:55;;;;;;;6.30;3.03;;;;;;;13.76;96.95;95532.63;5050282;28;20902;-75
2021/07/30 05:43:20;;;;;;;4.40;3.15;;;;;;;13.97;97.50;95534.47;5048070;28;20429;-74
2021/07/30 05:45:46;;;;;;;4.83;3.50;;;;;;;13.96;94.65;95535.44;5028983;28;20419;-74
2021/07/30 05:48:11;;;;;;;5.82;3.70;;;;;;;14.13;94.52;95534.91;5030402;28;20407;-74
2021/07/30 05:50:37;;;;;;;9.23;3.90;;;;;;;14.17;95.99;95538.91;5042080;28;20515;-69
2021/07/30 05:53:02;;;;;;;8.43;3.73;;;;;;;14.42;95.25;95536.91;5037214;28;20422;-74
2021/07/30 05:55:28;;;;;;;4.50;3.33;;;;;;;14.58;93.48;95539.97;5044119;28;20406;-74
2021/07/30 05:57:58;;;;;;;6.27;3.53;;;;;;;14.70;91.32;95533.72;5043884;28;20421;-74
2021/07/30 06:00:23;;;;;;;5.32;3.65;;;;;;;14.90;90.52;95539.88;5049300;28;20417;-74
2021/07/30 06:02:50;;;;;;;6.20;4.00;;;;;;;15.03;89.56;95534.47;5046386;28;20446;-74
2021/07/30 06:05:15;;;;;;;6.18;3.63;;;;;;;15.13;89.34;95526.69;5050171;28;20444;-74
2021/07/30 06:07:40;;;;;;;4.90;3.60;;;;;;;15.29;89.41;95527.03;5050367;28;20857;-74
2021/07/30 06:10:06;;;;;;;5.10;3.30;;;;;;;15.41;88.11;95520.78;5050349;28;20413;-74
2021/07/30 06:12:32;;;;;;;4.00;3.57;;;;;;;15.57;87.20;95517.66;5050196;28;20417;-74
2021/07/30 06:14:58;;;;;;;5.40;3.80;;;;;;;15.68;87.33;95519.38;5050477;28;20448;-74
2021/07/30 06:17:24;;;;;;;5.05;3.55;;;;;;;15.63;85.02;95517.13;5049953;28;20421;-74
2021/07/30 06:19:51;;;;;;;5.07;3.60;;;;;;;15.60;86.58;95517.38;5049705;28;20527;-75
2021/07/30 06:22:17;;;;;;;5.20;3.73;;;;;;;15.91;86.47;95520.81;5048897;28;21225;-75
2021/07/30 06:24:43;;;;;;;4.35;3.50;;;;;;;15.72;85.38;95508.53;5049073;28;20424;-75
2021/07/30 06:27:08;;;;;;;6.80;3.67;;;;;;;15.64;85.24;95524.00;5048930;28;20825;-75
2021/07/30 06:29:34;;;;;;;7.90;4.13;;;;;;;15.92;84.60;95516.41;5052329;28;20423;-75
2021/07/30 06:32:01;;;;;;;7.37;4.17;;;;;;;16.13;84.20;95514.50;5059066;28;20459;-75
2021/07/30 06:34:26;;;;;;;7.78;3.83;;;;;;;16.10;83.37;95519.19;5056324;28;20409;-75
2021/07/30 06:36:54;;;;;;;4.73;3.87;;;;;;;16.18;83.65;95514.91;5053438;28;20524;-75
2021/07/30 06:39:19;;;;;;;6.28;4.13;;;;;;;16.16;83.48;95511.59;5053816;28;20406;-75
2021/07/30 06:41:44;;;;;;;7.10;4.55;;;;;;;16.18;84.16;95520.16;5053667;28;20972;-75
2021/07/30 06:44:10;;;;;;;5.90;4.00;;;;;;;16.23;84.30;95519.72;5053444;28;20432;-75
2021/07/30 06:46:35;;;;;;;4.43;3.60;;;;;;;16.53;83.14;95515.31;5052045;28;20456;-77
2021/07/30 06:49:04;;;;;;;8.10;4.10;;;;;;;16.62;82.81;95509.28;5053093;28;20460;-75
2021/07/30 06:51:29;;;;;;;6.20;4.18;;;;;;;16.67;82.99;95510.50;5053323;28;20424;-75
2021/07/30 06:53:55;;;;;;;6.27;4.00;;;;;;;16.99;83.60;95514.59;5053498;28;20410;-76
2021/07/30 06:56:20;;;;;;;4.60;3.80;;;;;;;17.23;81.19;95508.03;5053136;28;20471;-76
2021/07/30 06:58:46;;;;;;;5.63;3.53;;;;;;;17.50;80.05;95504.63;5053141;28;20907;-77
2021/07/30 07:01:11;;;;;;;5.15;3.60;;;;;;;17.56;79.70;95512.72;5053131;28;20471;-73
2021/07/30 07:03:37;;;;;;;7.37;3.90;;;;;;;17.57;79.21;95511.75;5052518;28;20422;-75
2021/07/30 07:06:04;;;;;;;10.47;3.97;;;;;;;17.45;80.63;95515.53;5052731;28;20496;-76
2021/07/30 07:08:29;;;;;;;5.63;3.75;;;;;;;17.62;79.55;95516.56;5052872;28;20427;-75
2021/07/30 07:10:54;;;;;;;7.55;4.00;;;;;;;17.90;78.76;95512.97;5052826;28;20805;-76
2021/07/30 07:13:23;;;;;;;7.67;4.40;;;;;;;17.87;80.01;95509.81;5052858;28;20405;-75
2021/07/30 07:15:48;;;;;;;6.10;4.15;;;;;;;18.23;78.37;95508.06;5052481;28;20776;-75
2021/07/30 07:18:14;;;;;;;6.57;4.68;;;;;;;18.53;79.82;95508.66;5051371;28;20438;-75
2021/07/30 07:20:40;;;;;;;11.13;4.93;;;;;;;19.06;79.39;95511.22;5052408;28;20423;-72
2021/07/30 07:23:06;;;;;;;4.37;3.93;;;;;;;19.46;73.50;95512.38;5051607;28;20487;-76
2021/07/30 07:25:32;;;;;;;4.23;3.60;;;;;;;19.54;72.18;95501.94;5052534;28;20862;-75
2021/07/30 07:27:57;;;;;;;7.67;4.37;;;;;;;19.30;71.04;95512.31;5052618;28;20492;-75
2021/07/30 07:30:23;;;;;;;6.70;4.45;;;;;;;19.58;70.76;95505.06;5039474;28;20998;-76
2021/07/30 07:32:48;;;;;;;5.25;4.05;;;;;;;19.72;71.23;95501.03;5032721;28;20979;-76
2021/07/30 07:35:14;;;;;;;6.03;3.93;;;;;;;19.87;69.13;95488.91;5032399;28;20415;-76
2021/07/30 07:37:40;;;;;;;6.97;4.00;;;;;;;20.04;68.49;95495.88;5032623;28;20469;-76
2021/07/30 07:40:08;;;;;;;6.67;4.17;;;;;;;20.00;68.44;95491.91;5032512;28;20418;-76
2021/07/30 07:42:34;;;;;;;5.90;3.75;;;;;;;19.62;69.19;95495.94;5032286;28;20485;-76
2021/07/30 07:45:00;;;;;;;5.83;3.70;;;;;;;20.08;70.49;95491.13;5032325;28;20481;-75
2021/07/30 07:47:26;;;;;;;6.75;3.70;;;;;;;20.30;69.87;95489.66;5033044;28;20419;-75
2021/07/30 07:49:51;;;;;;;7.38;4.03;;;;;;;20.31;67.56;95494.75;5051685;28;20431;-75
2021/07/30 07:52:17;;;;;;;6.67;4.07;;;;;;;20.36;67.53;95488.19;5050783;28;20496;-74
2021/07/30 07:54:42;;;;;;;5.17;3.50;;;;;;;20.81;67.12;95493.00;5050744;28;20930;-75
2021/07/30 07:57:09;;;;;;;5.80;3.83;;;;;;;21.23;64.22;95486.66;5050349;28;20954;-75
2021/07/30 07:59:35;;;;;;;4.93;3.80;;;;;;;21.39;64.45;95491.91;5051540;28;20504;-74
2021/07/30 08:02:00;;;;;;;8.20;4.10;;;;;;;21.63;62.09;95488.38;5051911;28;20513;-77
2021/07/30 08:04:26;;;;;;;6.30;4.53;;;;;;;21.67;62.65;95487.03;5050684;28;20417;-75
2021/07/30 08:06:51;;;;;;;5.95;4.15;;;;;;;21.58;62.98;95485.44;5051919;28;20423;-75
2021/07/30 08:09:17;;;;;;;7.63;3.80;;;;;;;21.89;62.41;95479.34;5052202;28;20464;-75
2021/07/30 08:11:42;;;;;;;5.72;3.83;;;;;;;21.82;62.24;95473.13;5051402;28;20416;-75
2021/07/30 08:14:09;;;;;;;6.40;4.00;;;;;;;22.09;63.42;95477.91;5051625;28;20495;-75
2021/07/30 08:16:34;;;;;;;6.47;4.00;;;;;;;;;;5051289;28;20417;-75
2021/07/30 08:19:00;;;;;;;6.57;3.60;;;;;;;22.60;63.10;95480.88;5051440;28;20496;-75
2021/07/30 08:21:26;;;;;;;5.87;3.93;;;;;;;22.98;60.17;95480.06;5050331;28;20448;-75
2021/07/30 08:23:52;;;;;;;7.45;4.10;;;;;;;23.26;60.20;95475.00;5051630;28;20421;-74
2021/07/30 08:26:17;;;;;;;6.85;3.88;;;;;;;23.37;58.04;95475.34;5050215;28;20559;-75
2021/07/30 08:28:44;;;;;;;5.40;3.83;;;;;;;23.73;57.50;95469.34;5051563;28;20484;-75
2021/07/30 08:31:11;;;;;;;4.82;3.72;;;;;;;23.21;57.35;95475.53;5050938;28;20475;-75
2021/07/30 08:33:37;;;;;;;7.05;4.22;;;;;;;23.15;58.72;95478.91;5051513;28;20405;-75
2021/07/30 08:36:04;;;;;;;8.95;4.03;;;;;;;23.65;58.83;95469.41;5049946;28;20484;-75
2021/07/30 08:38:30;;;;;;;5.50;3.97;;;;;;;23.83;57.21;95472.50;5051477;28;20768;-75
2021/07/30 08:40:56;;;;;;;5.40;3.50;;;;;;;24.23;56.50;95467.66;5051031;28;20448;-75
2021/07/30 08:43:21;;;;;;;6.30;3.70;;;;;;;24.35;54.67;95465.31;5047093;28;20547;-75
2021/07/30 08:45:49;;;;;;;5.75;3.65;;;;;;;24.47;56.01;95481.53;5031001;28;20461;-75
2021/07/30 08:48:16;;;;;;;5.97;3.90;;;;;;;24.28;55.68;95472.38;5029840;28;20430;-75
2021/07/30 08:50:42;;;;;;;7.55;4.10;;;;;;;24.29;55.77;95466.09;5045670;28;20412;-75
2021/07/30 08:53:09;;;;;;;4.90;3.65;;;;;;;24.41;58.13;95466.44;5051201;28;20849;-75
2021/07/30 08:55:34;;;;;;;6.47;3.60;;;;;;;23.98;56.38;95461.88;5050759;28;20414;-75
2021/07/30 08:58:00;;;;;;;5.53;3.50;;;;;;;24.15;57.17;95460.66;5050556;28;20421;-75
2021/07/30 09:00:25;;;;;;;5.90;3.60;;;;;;;24.26;57.86;95451.41;5052058;28;20428;-76
2021/07/30 09:02:53;;;;;;;5.07;3.90;;;;;;;24.10;57.11;95444.53;5051333;28;20456;-77
2021/07/30 09:05:30;;;;;;;5.47;3.72;;;;;;;23.94;55.05;95443.94;5050929;28;20460;-77
2021/07/30 09:07:57;;;;;;;4.68;3.80;;;;;;;23.79;56.76;95451.91;5051143;28;20436;-77
2021/07/30 09:10:30;;;;;;;8.70;4.20;;;;;;;24.09;54.72;95447.34;5049313;28;20427;-77
2021/07/30 09:13:15;;;;;;;5.30;4.38;;;;;;;23.71;56.74;95454.66;5051078;28;20405;-77
2021/07/30 09:15:41;;;;;;;5.97;4.18;;;;;;;23.65;56.74;95442.97;5050213;28;20420;-76
2021/07/30 09:18:22;;;;;;;4.35;3.95;;;;;;;23.91;53.34;95443.28;5046881;28;20452;-73
2021/07/30 09:20:49;;;;;;;5.30;4.32;;;;;;;24.07;55.13;95452.03;5046241;28;20466;-76
2021/07/30 09:23:16;;;;;;;7.50;4.38;;;;;;;24.25;52.71;95455.06;5050628;28;20444;-77
2021/07/30 09:25:42;;;;;;;6.72;4.50;;;;;;;24.01;52.79;95456.22;5035467;28;20529;-77
2021/07/30 09:28:07;;;;;;;7.90;4.10;;;;;;;24.19;51.83;95444.41;5045868;28;20883;-76
2021/07/30 09:30:34;;;;;;;6.27;4.33;;;;;;;24.52;52.28;95439.47;5050558;28;20412;-76
2021/07/30 09:32:59;;;;;;;4.57;3.78;;;;;;;24.69;51.50;95445.28;5057074;28;20425;-76
2021/07/30 09:35:25;;;;;;;4.73;4.00;;;;;;;24.79;50.87;95445.78;5057567;28;20504;-77
2021/07/30 09:38:16;;;;;;;4.15;3.72;;;;;;;24.78;52.11;95438.84;5063303;28;20417;-79
2021/07/30 09:40:41;;;;;;;5.93;4.50;;;;;;;24.66;50.97;95432.41;5061482;28;20431;-78
2021/07/30 09:43:19;;;;;;;4.63;4.07;;;;;;;24.68;52.10;95428.56;5058453;28;20488;-78
2021/07/30 09:45:45;;;;;;;5.68;4.22;;;;;;;25.07;52.61;95422.75;5055150;28;20459;-78
2021/07/30 09:48:10;;;;;;;6.17;4.13;;;;;;;24.86;51.11;95420.97;5050154;28;20893;-77
2021/07/30 09:50:36;;;;;;;6.47;4.30;;;;;;;25.12;51.46;95427.50;5045128;28;20450;-78
2021/07/30 09:53:03;;;;;;;5.50;4.30;;;;;;;25.39;50.45;95420.50;5033805;28;20411;-77
2021/07/30 09:55:30;;;;;;;6.60;4.22;;;;;;;25.00;50.22;95416.59;5034273;28;20426;-77
2021/07/30 09:57:57;;;;;;;4.90;3.90;;;;;;;24.89;51.62;95421.63;5034483;28;20486;-77
2021/07/30 10:00:22;;;;;;;5.85;3.92;;;;;;;24.93;50.83;95407.78;5033692;28;20927;-77
2021/07/30 10:02:48;;;;;;;5.95;4.55;;;;;;;24.39;51.56;95416.31;5033983;28;20418;-78
2021/07/30 10:05:18;;;;;;;7.50;4.30;;;;;;;24.12;52.72;95413.41;5032256;28;20501;-78
2021/07/30 10:07:45;;;;;;;4.80;4.30;;;;;;;24.02;53.96;95412.88;5032800;28;20441;-78
2021/07/30 10:12:51;;;;;;;5.47;4.10;;;;;;;23.99;54.71;95412.44;5038468;28;20427;-78
2021/07/30 10:15:17;;;;;;;5.95;4.10;;;;;;;23.86;55.10;95416.59;5036706;28;20429;-78
2021/07/30 10:17:44;;;;;;;5.78;4.28;;;;;;;23.69;55.78;95411.72;5038084;28;20411;-78
2021/07/30 10:20:11;;;;;;;5.85;4.40;;;;;;;23.58;56.84;95420.91;5047832;28;20417;-78
2021/07/30 10:22:41;;;;;;;5.78;4.45;;;;;;;23.60;56.71;95411.81;5058306;28;20413;-78
2021/07/30 10:25:10;;;;;;;5.13;4.38;;;;;;;23.57;57.38;95414.00;5057983;28;20421;-78
2021/07/30 10:27:40;;;;;;;5.57;4.47;;;;;;;23.56;58.29;95412.38;5057089;28;20817;-78
2021/07/30 10:30:09;;;;;;;5.43;4.30;;;;;;;23.47;57.75;95416.91;5057555;28;20405;-78
2021/07/30 10:32:56;;;;;;;6.57;4.37;;;;;;;23.58;56.27;95415.63;5057456;28;20414;-78
2021/07/30 10:35:45;;;;;;;4.85;4.30;;;;;;;23.73;56.04;95403.25;5056884;28;20417;-78
2021/07/30 10:38:16;;;;;;;6.57;4.97;;;;;;;23.83;56.42;95403.75;5058003;28;20416;-78
2021/07/30 10:40:43;;;;;;;5.93;4.28;;;;;;;24.13;55.33;95401.81;5057885;28;20411;-78
2021/07/30 10:43:10;;;;;;;5.10;4.33;;;;;;;24.16;55.84;95392.69;5057972;28;20417;-78
2021/07/30 10:45:38;;;;;;;5.38;4.47;;;;;;;24.13;57.70;95396.50;5056719;28;20780;-78
2021/07/30 10:48:30;;;;;;;11.07;4.20;;;;;;;24.17;55.95;95394.31;5057491;28;20413;-78
2021/07/30 10:50:59;;;;;;;7.78;4.90;;;;;;;24.14;55.54;95392.06;5056925;28;21133;-79
2021/07/30 10:53:42;;;;;;;7.65;4.82;;;;;;;23.76;56.44;95396.75;5054705;28;20413;-79
2021/07/30 10:56:45;;;;;;;4.82;4.25;;;;;;;23.60;58.33;95392.47;5057252;28;20421;-78
2021/07/30 10:59:11;;;;;;;7.50;4.70;;;;;;;23.54;58.91;95393.22;5056004;28;20792;-78
2021/07/30 11:02:11;;;;;;;9.07;4.80;;;;;;;23.66;58.54;95387.31;5057250;28;20420;-78
2021/07/30 11:05:04;;;;;;;7.18;4.88;;;;;;;24.01;57.69;95389.28;4977945;28;20422;-78
2021/07/30 11:07:32;;;;;;;5.28;4.60;;;;;;;24.13;56.69;95385.13;4993028;28;20442;-78
2021/07/30 11:10:12;;;;;;;5.85;4.55;;;;;;;24.12;58.49;95392.25;5033925;28;20428;-78
2021/07/30 11:12:37;;;;;;;5.87;4.67;;;;;;;24.03;57.14;95377.50;5054333;28;20463;-79
2021/07/30 11:15:06;;;;;;;5.97;4.63;;;;;;;24.14;55.80;95378.84;5056186;28;20405;-78
2021/07/30 11:17:34;;;;;;;5.78;4.40;;;;;;;24.31;56.22;95374.91;5055339;28;20467;-78
2021/07/30 11:20:02;;;;;;;5.82;4.38;;;;;;;24.62;55.36;95368.44;5052321;28;20479;-78
2021/07/30 11:22:27;;;;;;;7.18;4.57;;;;;;;24.79;55.17;95367.13;5055615;28;20413;-78
2021/07/30 11:24:53;;;;;;;6.23;4.37;;;;;;;24.75;55.38;95376.47;5054270;28;20505;-78
2021/07/30 11:27:21;;;;;;;7.20;4.85;;;;;;;25.02;54.21;95371.34;5054355;28;20437;-79
2021/07/30 11:29:49;;;;;;;6.78;4.97;;;;;;;25.01;54.52;95364.41;5057633;28;20425;-78
2021/07/30 11:32:15;;;;;;;8.70;4.87;;;;;;;25.13;53.91;95362.06;5060358;28;20417;-79
2021/07/30 11:34:46;;;;;;;4.70;4.20;;;;;;;25.01;54.84;95364.41;5058413;28;20409;-76
2021/07/30 11:37:14;;;;;;;4.87;4.37;;;;;;;24.76;54.20;95366.69;5057434;28;20409;-79
2021/07/30 11:39:44;;;;;;;7.63;4.90;;;;;;;24.92;54.55;95360.28;5056192;28;20449;-78
2021/07/30 11:42:12;;;;;;;7.22;5.03;;;;;;;24.89;55.59;95350.09;5056996;28;20467;-79